Terminal Aerodrome Forecast
Issued by NWS Tampa Bay Area, FL

Home | Current Version | Previous Version | Text Only | Print | Product List | Glossary On
Versions: 1 2 3 4 5 6 7 8 9 10 11 12
000
FTUS42 KTBW 312341
TAFFMY
TAF
KFMY 312341Z 0100/0124 28006KT P6SM VCSH FEW025 BKN100
     FM010200 VRB03KT P6SM FEW030 SCT050
     FM011400 10007KT P6SM SCT050 SCT250
     FM011900 23008KT P6SM VCTS SCT035CB SCT250=

USA.gov is the U.S. government's official web portal to all federal, state and local government web resources and services.